createdAt,value
2023-01-19T00:01:44.855Z,98694.78
2023-01-19T00:06:46.565Z,98688.81
2023-01-19T00:11:48.186Z,98696.50
2023-01-19T00:16:50.036Z,98691.41
2023-01-19T00:21:51.700Z,98692.25
2023-01-19T00:26:53.535Z,98701.69
2023-01-19T00:31:55.244Z,98707.69
2023-01-19T00:36:56.843Z,98713.69
2023-01-19T00:42:17.023Z,98714.56
2023-01-19T00:47:18.662Z,98720.53
2023-01-19T00:52:20.557Z,98735.13
2023-01-19T00:57:22.352Z,98743.69
2023-01-19T01:02:24.265Z,98746.25
2023-01-19T01:07:26.123Z,98745.41
2023-01-19T01:12:28.631Z,98744.56
2023-01-19T01:17:30.402Z,98751.38
2023-01-19T01:22:32.058Z,98754.78
2023-01-19T01:27:33.705Z,98759.06
2023-01-19T01:32:35.373Z,98757.38
2023-01-19T01:37:37.862Z,98760.78
2023-01-19T01:42:40.563Z,98754.75
2023-01-19T01:47:47.164Z,98766.78
2023-01-19T01:53:14.626Z,98768.44
2023-01-19T01:58:16.812Z,98772.66
2023-01-19T02:03:18.740Z,98774.34
2023-01-19T02:08:47.122Z,98771.81
2023-01-19T02:13:48.896Z,98782.91
2023-01-19T02:18:50.538Z,98776.91
2023-01-19T02:23:53.672Z,98787.97
2023-01-19T02:29:00.452Z,98788.09
2023-01-19T02:34:04.019Z,98798.28
2023-01-19T02:39:08.427Z,98802.59
2023-01-19T02:44:12.625Z,98804.25
2023-01-19T02:49:14.341Z,98798.16
2023-01-19T02:54:42.769Z,98796.50
2023-01-19T03:00:23.320Z,98804.06
2023-01-19T03:05:49.228Z,98809.94
2023-01-19T03:11:03.307Z,98809.84
2023-01-19T03:16:27.056Z,98810.50
2023-01-19T03:21:30.299Z,98806.25
2023-01-19T03:26:37.445Z,98814.66
2023-01-19T03:31:41.957Z,98830.63
2023-01-19T03:36:50.712Z,98828.06
2023-01-19T03:41:57.285Z,98833.09
2023-01-19T03:47:00.194Z,98830.03
2023-01-19T03:52:01.915Z,98841.28
2023-01-19T03:57:03.692Z,98833.69
2023-01-19T04:02:05.366Z,98831.19
2023-01-19T04:07:07.050Z,98836.41
2023-01-19T04:12:09.160Z,98850.28
2023-01-19T04:17:10.779Z,98853.75
2023-01-19T04:22:12.511Z,98856.19
2023-01-19T04:27:16.329Z,98839.13
2023-01-19T04:32:18.139Z,98846.03
2023-01-19T04:37:19.810Z,98839.09
2023-01-19T04:42:21.987Z,98833.91
2023-01-19T04:47:23.714Z,98844.28
2023-01-19T04:52:25.653Z,98848.47
2023-01-19T04:57:27.816Z,98842.53
2023-01-19T05:02:29.718Z,98844.16
2023-01-19T05:07:31.872Z,98844.16
2023-01-19T05:12:34.511Z,98840.69
2023-01-19T05:17:37.021Z,98846.78
2023-01-19T05:22:39.374Z,98841.66
2023-01-19T05:27:41.115Z,98838.19
2023-01-19T05:32:42.890Z,98829.59
2023-01-19T05:37:44.649Z,98826.91
2023-01-19T05:42:46.445Z,98828.50
2023-01-19T05:47:48.195Z,98830.84
2023-01-19T05:52:49.895Z,98827.34
2023-01-19T05:57:51.910Z,98830.72
2023-01-19T06:02:54.034Z,98832.38
2023-01-19T06:07:57.178Z,98839.94
2023-01-19T06:12:59.196Z,98834.09
2023-01-19T06:18:01.105Z,98840.13
2023-01-19T06:23:03.628Z,98850.38
2023-01-19T06:28:05.648Z,98859.06
2023-01-19T06:33:10.568Z,98870.22
2023-01-19T06:38:17.157Z,98871.78
2023-01-19T06:43:20.368Z,98882.91
2023-01-19T06:48:22.363Z,98881.09
2023-01-19T06:53:24.432Z,98882.75
2023-01-19T06:58:26.120Z,98889.00
2023-01-19T07:03:28.277Z,98889.00
2023-01-19T07:08:30.356Z,98900.03
2023-01-19T07:13:33.953Z,98894.00
2023-01-19T07:18:37.387Z,98898.19
2023-01-19T07:23:39.240Z,98903.50
2023-01-19T07:28:41.737Z,98904.59
2023-01-19T07:33:43.647Z,98909.72
2023-01-19T07:38:45.453Z,98918.53
2023-01-19T07:43:47.416Z,98927.00
2023-01-19T07:48:49.158Z,98934.94
2023-01-19T07:53:51.755Z,98929.72
2023-01-19T07:58:53.722Z,98931.56
2023-01-19T08:03:55.647Z,98938.53
2023-01-19T08:08:57.430Z,98942.09
2023-01-19T08:13:59.656Z,98935.31
2023-01-19T08:19:01.369Z,98938.91
2023-01-19T08:24:03.297Z,98945.00
2023-01-19T08:29:06.136Z,98940.88
2023-01-19T08:34:08.742Z,98946.03
2023-01-19T08:39:12.346Z,98954.63
2023-01-19T08:44:14.211Z,98956.47
2023-01-19T08:49:16.091Z,98959.88
2023-01-19T08:54:18.736Z,98957.38
2023-01-19T08:59:20.563Z,98954.78
2023-01-19T09:04:23.538Z,98961.66
2023-01-19T09:09:25.306Z,98959.09
2023-01-19T09:14:27.056Z,98956.56
2023-01-19T09:19:28.801Z,98947.09
2023-01-19T09:24:30.539Z,98952.16
2023-01-19T09:29:32.326Z,98964.94
2023-01-19T09:34:34.001Z,98961.50
2023-01-19T09:39:36.525Z,98962.38
2023-01-19T09:44:40.178Z,98951.22
2023-01-19T09:49:46.224Z,98958.00
2023-01-19T09:54:56.305Z,98950.16
2023-01-19T09:59:59.651Z,98952.50
2023-01-19T10:05:14.534Z,98949.25
2023-01-19T10:10:19.174Z,98954.47
2023-01-19T10:15:33.025Z,98946.75
2023-01-19T10:20:41.919Z,98949.22
2023-01-19T10:25:44.289Z,98935.22
2023-01-19T10:30:47.750Z,98943.19
2023-01-19T10:35:50.482Z,98938.88
2023-01-19T10:41:04.523Z,98942.28
2023-01-19T10:46:17.268Z,98938.69
2023-01-19T10:51:19.912Z,98926.59
2023-01-19T10:56:24.900Z,98931.91
2023-01-19T11:01:28.391Z,98928.34
2023-01-19T11:06:31.484Z,98936.78
2023-01-19T11:11:42.023Z,98933.47
2023-01-19T11:16:49.859Z,98936.66
2023-01-19T11:21:52.471Z,98923.72
2023-01-19T11:27:02.969Z,98932.78
2023-01-19T11:32:19.243Z,98923.13
2023-01-19T11:37:20.816Z,98924.16
2023-01-19T11:42:22.848Z,98928.38
2023-01-19T11:47:29.185Z,98932.66
2023-01-19T11:52:46.235Z,98930.69
2023-01-19T11:57:49.560Z,98934.06
2023-01-19T12:03:01.901Z,98939.84
2023-01-19T12:08:07.184Z,98936.81
2023-01-19T12:13:21.987Z,98930.50
2023-01-19T12:18:28.195Z,98929.03
2023-01-19T12:23:55.735Z,98934.59
2023-01-19T12:29:04.000Z,98923.69
2023-01-19T12:34:31.300Z,98928.53
2023-01-19T12:39:35.431Z,98925.94
2023-01-19T12:44:37.408Z,98925.44
2023-01-19T12:49:38.989Z,98919.50
2023-01-19T12:54:49.619Z,98918.94
2023-01-19T13:00:21.018Z,98920.94
2023-01-19T13:05:42.602Z,98920.09
2023-01-19T13:10:53.868Z,98913.19
2023-01-19T13:15:58.596Z,98905.31
2023-01-19T13:21:04.895Z,98900.44
2023-01-19T13:26:11.788Z,98893.56
2023-01-19T13:31:14.568Z,98899.56
2023-01-19T13:36:30.491Z,98900.44
2023-01-19T13:41:37.442Z,98906.88
2023-01-19T13:46:39.674Z,98908.47
2023-01-19T13:51:41.392Z,98913.72
2023-01-19T13:56:50.108Z,98907.72
2023-01-19T14:01:54.300Z,98914.00
2023-01-19T14:07:04.428Z,98915.75
2023-01-19T14:12:15.272Z,98902.75
2023-01-19T14:17:22.274Z,98922.78
2023-01-19T14:22:44.782Z,98921.22
2023-01-19T14:27:46.501Z,98934.94
2023-01-19T14:32:48.144Z,98933.16
2023-01-19T14:37:52.079Z,98929.31
2023-01-19T14:42:57.507Z,98927.78
2023-01-19T14:48:12.283Z,98931.47
2023-01-19T14:53:25.717Z,98937.44
2023-01-19T14:58:31.280Z,98932.19
2023-01-19T15:03:48.556Z,98934.78
2023-01-19T15:08:50.559Z,98940.09
2023-01-19T15:13:52.317Z,98949.75
2023-01-19T15:18:53.969Z,98947.28
2023-01-19T15:23:55.851Z,98954.25
2023-01-19T15:28:57.635Z,98958.72
2023-01-19T15:33:59.244Z,98969.09
2023-01-19T15:39:00.895Z,98974.28
2023-01-19T15:44:03.567Z,98974.34
2023-01-19T15:49:08.290Z,98986.44
2023-01-19T15:54:14.579Z,98981.34
2023-01-19T15:59:16.273Z,98982.97
2023-01-19T16:04:18.163Z,98982.94
2023-01-19T16:09:20.143Z,98982.09
2023-01-19T16:14:21.893Z,98989.91
2023-01-19T16:19:23.844Z,98995.13
2023-01-19T16:24:25.670Z,98997.66
2023-01-19T16:29:27.562Z,98994.22
2023-01-19T16:34:41.868Z,98996.69
2023-01-19T16:39:45.425Z,99009.63
2023-01-19T16:44:47.278Z,99009.59
2023-01-19T16:49:49.045Z,99007.88
2023-01-19T16:54:54.587Z,99016.47
2023-01-19T16:59:56.244Z,99021.69
2023-01-19T17:05:00.228Z,99024.22
2023-01-19T17:10:02.148Z,99024.34
2023-01-19T17:15:04.236Z,99026.97
2023-01-19T17:20:06.563Z,99037.28
2023-01-19T17:25:08.461Z,99034.69
2023-01-19T17:30:11.117Z,99038.97
2023-01-19T17:35:12.975Z,99042.47
2023-01-19T17:40:15.106Z,99046.75
2023-01-19T17:45:16.938Z,99051.91
2023-01-19T17:50:21.463Z,99050.16
2023-01-19T17:55:23.759Z,99057.06
2023-01-19T18:00:25.556Z,99057.88
2023-01-19T18:05:27.197Z,99061.34
2023-01-19T18:10:28.890Z,99069.09
2023-01-19T18:15:30.610Z,99063.84
2023-01-19T18:20:32.424Z,99065.56
2023-01-19T18:25:34.105Z,99061.31
2023-01-19T18:30:37.520Z,99050.09
2023-01-19T18:35:39.436Z,99061.31
2023-01-19T18:40:41.438Z,99065.56
2023-01-19T18:45:45.794Z,99066.34
2023-01-19T18:50:47.481Z,99067.22
2023-01-19T18:55:54.498Z,99080.13
2023-01-19T19:00:57.100Z,99081.84
2023-01-19T19:06:03.352Z,99087.81
2023-01-19T19:11:08.870Z,99088.72
2023-01-19T19:16:12.620Z,99090.47
2023-01-19T19:21:14.412Z,99092.97
2023-01-19T19:26:16.135Z,99100.66
2023-01-19T19:31:20.594Z,99103.97
2023-01-19T19:36:23.740Z,99104.03
2023-01-19T19:41:27.126Z,99104.03
2023-01-19T19:46:29.005Z,99108.34
2023-01-19T19:51:30.767Z,99114.28
2023-01-19T19:56:34.789Z,99116.00
2023-01-19T20:01:36.628Z,99122.94
2023-01-19T20:06:44.481Z,99120.34
2023-01-19T20:11:46.783Z,99124.63
2023-01-19T20:16:48.537Z,99131.50
2023-01-19T20:21:50.330Z,99132.41
2023-01-19T20:26:53.408Z,99136.78
2023-01-19T20:31:56.308Z,99135.81
2023-01-19T20:36:58.102Z,99144.50
2023-01-19T20:41:59.988Z,99145.28
2023-01-19T20:47:01.745Z,99150.50
2023-01-19T20:52:03.424Z,99156.50
2023-01-19T20:57:05.782Z,99154.75
2023-01-19T21:02:12.409Z,99161.72
2023-01-19T21:07:14.244Z,99166.84
2023-01-19T21:12:16.095Z,99178.09
2023-01-19T21:17:17.809Z,99175.31
2023-01-19T21:22:19.643Z,99179.59
2023-01-19T21:27:21.337Z,99182.09
2023-01-19T21:32:23.594Z,99193.31
2023-01-19T21:37:25.344Z,99198.41
2023-01-19T21:42:27.128Z,99191.59
2023-01-19T21:47:28.795Z,99188.09
2023-01-19T21:52:30.429Z,99201.13
2023-01-19T21:57:32.126Z,99205.50
2023-01-19T22:02:38.922Z,99208.81
2023-01-19T22:07:41.239Z,99209.66
2023-01-19T22:12:42.962Z,99210.47
2023-01-19T22:17:44.694Z,99210.53
2023-01-19T22:22:46.512Z,99221.78
2023-01-19T22:27:48.195Z,99221.75
2023-01-19T22:32:50.063Z,99223.47
2023-01-19T22:37:51.695Z,99227.81
2023-01-19T22:42:53.343Z,99227.00
2023-01-19T22:47:54.986Z,99230.56
2023-01-19T22:52:57.807Z,99234.09
2023-01-19T22:57:59.727Z,99239.22
2023-01-19T23:03:01.458Z,99226.19
2023-01-19T23:08:03.245Z,99228.88
2023-01-19T23:13:04.980Z,99233.16
2023-01-19T23:18:06.702Z,99226.22
2023-01-19T23:23:08.377Z,99222.69
2023-01-19T23:28:10.334Z,99232.22
2023-01-19T23:33:12.212Z,99238.25
2023-01-19T23:38:13.904Z,99232.94
2023-01-19T23:43:16.090Z,99226.09
2023-01-19T23:48:17.792Z,99223.56
2023-01-19T23:53:23.413Z,99229.47
2023-01-19T23:58:25.059Z,99227.84
